createdAt,value
2018-12-21T00:01:29.967Z,53.30
2018-12-21T00:03:56.921Z,53.20
2018-12-21T00:06:23.867Z,53.20
2018-12-21T00:08:50.781Z,53.20
2018-12-21T00:11:17.701Z,53.20
2018-12-21T00:13:44.699Z,53.20
2018-12-21T00:16:11.619Z,53.10
2018-12-21T00:18:38.595Z,53.10
2018-12-21T00:21:05.547Z,53.10
2018-12-21T00:23:32.493Z,53.10
2018-12-21T00:25:59.407Z,53.20
2018-12-21T00:28:26.332Z,53.30
2018-12-21T00:30:59.141Z,53.40
2018-12-21T00:33:31.924Z,53.20
2018-12-21T00:36:04.540Z,53.10
2018-12-21T00:38:37.138Z,53.10
2018-12-21T00:41:10.038Z,53.20
2018-12-21T00:43:38.885Z,53.10
2018-12-21T00:46:05.831Z,53.00
2018-12-21T00:48:32.777Z,52.90
2018-12-21T00:50:59.712Z,52.90
2018-12-21T00:53:26.625Z,52.80
2018-12-21T00:55:53.540Z,52.80
2018-12-21T00:58:20.544Z,52.90
2018-12-21T01:00:47.477Z,52.90
2018-12-21T01:03:14.445Z,52.90
2018-12-21T01:05:41.385Z,52.90
2018-12-21T01:08:08.312Z,52.90
2018-12-21T01:10:35.243Z,52.90
2018-12-21T01:13:02.220Z,52.90
2018-12-21T01:15:29.148Z,52.80
2018-12-21T01:17:56.204Z,52.80
2018-12-21T01:20:23.173Z,52.80
2018-12-21T01:22:50.112Z,52.70
2018-12-21T01:25:17.062Z,52.60
2018-12-21T01:27:43.983Z,52.60
2018-12-21T01:30:10.900Z,52.80
2018-12-21T01:32:37.899Z,52.50
2018-12-21T01:35:04.821Z,52.30
2018-12-21T01:37:31.797Z,52.30
2018-12-21T01:39:58.714Z,52.30
2018-12-21T01:42:25.644Z,52.30
2018-12-21T01:44:52.619Z,52.40
2018-12-21T01:47:19.537Z,52.50
2018-12-21T01:49:46.517Z,52.50
2018-12-21T01:52:13.445Z,52.60
2018-12-21T01:54:40.410Z,52.60
2018-12-21T01:57:07.339Z,52.60
2018-12-21T01:59:34.344Z,52.60
2018-12-21T02:02:01.265Z,52.80
2018-12-21T02:04:28.182Z,52.70
2018-12-21T02:06:55.145Z,53.00
2018-12-21T02:09:22.093Z,52.60
2018-12-21T02:11:49.033Z,52.50
2018-12-21T02:14:15.978Z,52.50
2018-12-21T02:16:42.897Z,52.50
2018-12-21T02:19:09.860Z,52.40
2018-12-21T02:21:36.782Z,52.30
2018-12-21T02:24:03.692Z,52.30
2018-12-21T02:26:30.622Z,52.30
2018-12-21T02:28:57.540Z,52.30
2018-12-21T02:31:24.452Z,52.30
2018-12-21T02:33:51.372Z,52.30
2018-12-21T02:36:18.286Z,52.40
2018-12-21T02:38:45.195Z,52.40
2018-12-21T02:41:12.117Z,52.30
2018-12-21T02:43:39.120Z,52.30
2018-12-21T02:46:06.051Z,52.40
2018-12-21T02:48:33.003Z,52.20
2018-12-21T02:50:59.957Z,52.20
2018-12-21T02:53:26.868Z,52.10
2018-12-21T02:55:53.850Z,52.00
2018-12-21T02:58:20.790Z,52.00
2018-12-21T03:00:47.712Z,52.00
2018-12-21T03:03:14.629Z,51.80
2018-12-21T03:05:41.558Z,51.90
2018-12-21T03:08:08.472Z,51.80
2018-12-21T03:10:35.420Z,52.00
2018-12-21T03:13:02.356Z,51.80
2018-12-21T03:15:29.280Z,51.90
2018-12-21T03:17:56.197Z,52.00
2018-12-21T03:20:23.201Z,52.00
2018-12-21T03:22:50.127Z,52.00
2018-12-21T03:25:17.099Z,51.90
2018-12-21T03:27:44.029Z,51.80
2018-12-21T03:30:10.948Z,51.70
2018-12-21T03:32:37.861Z,51.70
2018-12-21T03:35:04.808Z,51.80
2018-12-21T03:37:31.727Z,51.80
2018-12-21T03:39:58.650Z,51.70
2018-12-21T03:42:25.600Z,51.60
2018-12-21T03:44:52.536Z,51.60
2018-12-21T03:47:19.529Z,51.60
2018-12-21T03:49:46.448Z,51.50
2018-12-21T03:52:13.396Z,51.60
2018-12-21T03:54:40.340Z,51.60
2018-12-21T03:57:07.251Z,51.70
2018-12-21T03:59:34.181Z,51.80
2018-12-21T04:02:01.091Z,51.80
2018-12-21T04:04:28.023Z,51.50
2018-12-21T04:06:54.972Z,51.50
2018-12-21T04:09:21.892Z,51.60
2018-12-21T04:11:48.831Z,51.60
2018-12-21T04:14:15.746Z,51.40
2018-12-21T04:16:42.669Z,51.50
2018-12-21T04:19:09.705Z,51.40
2018-12-21T04:21:36.639Z,51.50
2018-12-21T04:24:03.596Z,51.50
2018-12-21T04:26:30.543Z,51.40
2018-12-21T04:28:57.449Z,51.40
2018-12-21T04:31:24.382Z,51.40
2018-12-21T04:33:51.301Z,51.40
2018-12-21T04:36:18.218Z,52.20
2018-12-21T04:38:45.409Z,51.70
2018-12-21T04:41:12.328Z,51.70
2018-12-21T04:43:39.251Z,51.70
2018-12-21T04:46:06.209Z,51.60
2018-12-21T04:48:33.148Z,51.70
2018-12-21T04:51:00.092Z,51.60
2018-12-21T04:53:27.036Z,51.60
2018-12-21T04:55:53.956Z,51.50
2018-12-21T04:58:20.936Z,51.40
2018-12-21T05:00:47.852Z,51.40
2018-12-21T05:03:14.824Z,51.30
2018-12-21T05:05:41.779Z,51.40
2018-12-21T05:08:08.689Z,51.30
2018-12-21T05:10:35.614Z,51.30
2018-12-21T05:13:02.608Z,51.30
2018-12-21T05:15:29.542Z,51.20
2018-12-21T05:17:56.468Z,51.10
2018-12-21T05:20:23.440Z,51.30
2018-12-21T05:22:52.430Z,51.50
2018-12-21T05:25:19.271Z,51.50
2018-12-21T05:27:46.245Z,51.40
2018-12-21T05:30:13.172Z,51.50
2018-12-21T05:32:40.097Z,51.50
2018-12-21T05:35:07.093Z,51.30
2018-12-21T05:37:34.012Z,51.30
2018-12-21T05:40:00.932Z,51.30
2018-12-21T05:42:27.848Z,51.30
2018-12-21T05:44:54.776Z,51.30
2018-12-21T05:47:21.892Z,51.50
2018-12-21T05:49:48.833Z,51.70
2018-12-21T05:52:15.761Z,51.60
2018-12-21T05:54:42.732Z,51.70
2018-12-21T05:57:09.675Z,51.80
2018-12-21T05:59:36.584Z,52.00
2018-12-21T06:02:05.419Z,52.00
2018-12-21T06:04:32.572Z,52.00
2018-12-21T06:06:59.483Z,52.10
2018-12-21T06:09:26.413Z,51.90
2018-12-21T06:11:53.399Z,51.90
2018-12-21T06:14:20.320Z,52.00
2018-12-21T06:16:47.312Z,51.80
2018-12-21T06:19:14.340Z,51.80
2018-12-21T06:21:41.264Z,51.70
2018-12-21T06:24:08.227Z,52.00
2018-12-21T06:26:35.204Z,51.70
2018-12-21T06:29:02.224Z,51.60
2018-12-21T06:31:29.144Z,51.50
2018-12-21T06:33:56.064Z,51.50
2018-12-21T06:36:22.991Z,51.50
2018-12-21T06:38:49.907Z,51.70
2018-12-21T06:41:16.823Z,51.80
2018-12-21T06:43:43.799Z,52.00
2018-12-21T06:46:14.331Z,51.70
2018-12-21T06:48:39.731Z,51.50
2018-12-21T06:51:06.680Z,51.40
2018-12-21T06:53:33.596Z,51.50
2018-12-21T06:56:00.580Z,51.40
2018-12-21T06:58:27.500Z,51.30
2018-12-21T07:00:54.412Z,51.20
2018-12-21T07:03:21.329Z,51.10
2018-12-21T07:05:48.246Z,51.10
2018-12-21T07:08:15.165Z,51.00
2018-12-21T07:10:42.085Z,51.00
2018-12-21T07:13:09.007Z,50.90
2018-12-21T07:15:35.927Z,51.10
2018-12-21T07:18:02.849Z,50.90
2018-12-21T07:20:29.776Z,51.20
2018-12-21T07:22:56.772Z,51.30
2018-12-21T07:25:23.684Z,51.40
2018-12-21T07:27:50.608Z,51.50
2018-12-21T07:30:17.611Z,51.60
2018-12-21T07:32:44.870Z,51.60
2018-12-21T07:35:11.813Z,51.60
2018-12-21T07:37:38.728Z,51.50
2018-12-21T07:40:07.344Z,51.40
2018-12-21T07:42:34.291Z,51.40
2018-12-21T07:45:01.249Z,51.30
2018-12-21T07:47:28.176Z,51.50
2018-12-21T07:49:55.087Z,51.60
2018-12-21T07:52:22.011Z,51.40
2018-12-21T07:54:49.015Z,51.30
2018-12-21T07:57:15.941Z,51.40
2018-12-21T07:59:42.900Z,51.30
2018-12-21T08:02:09.857Z,51.20
2018-12-21T08:04:36.778Z,51.60
2018-12-21T08:07:03.754Z,51.70
2018-12-21T08:09:30.691Z,51.70
2018-12-21T08:11:57.632Z,51.70
2018-12-21T08:14:24.618Z,51.40
2018-12-21T08:16:51.532Z,51.70
2018-12-21T08:19:18.457Z,51.70
2018-12-21T08:21:45.398Z,51.60
2018-12-21T08:24:12.362Z,51.50
2018-12-21T08:26:39.280Z,51.50
2018-12-21T08:29:06.202Z,51.20
2018-12-21T08:31:33.124Z,51.10
2018-12-21T08:34:00.152Z,51.00
2018-12-21T08:36:27.098Z,51.60
2018-12-21T08:38:54.042Z,51.00
2018-12-21T08:41:20.956Z,51.10
2018-12-21T08:43:47.891Z,51.40
2018-12-21T08:46:14.827Z,51.50
2018-12-21T08:48:41.821Z,51.60
2018-12-21T08:51:08.736Z,51.40
2018-12-21T08:53:35.653Z,51.40
2018-12-21T08:56:02.628Z,51.30
2018-12-21T08:58:29.600Z,51.30
2018-12-21T09:00:56.539Z,51.30
2018-12-21T09:03:23.581Z,51.30
2018-12-21T09:05:50.608Z,51.30
2018-12-21T09:08:17.589Z,51.30
2018-12-21T09:10:44.626Z,51.30
2018-12-21T09:13:11.693Z,51.30
2018-12-21T09:15:38.636Z,51.30
2018-12-21T09:18:05.581Z,51.20
2018-12-21T09:20:32.525Z,51.40
2018-12-21T09:22:59.476Z,51.60
2018-12-21T09:25:26.414Z,51.60
2018-12-21T09:27:53.324Z,51.60
2018-12-21T09:30:20.304Z,51.50
2018-12-21T09:32:47.217Z,51.40
2018-12-21T09:35:14.205Z,51.50
2018-12-21T09:37:41.120Z,51.50
2018-12-21T09:40:08.642Z,51.70
2018-12-21T09:42:35.648Z,51.20
2018-12-21T09:45:02.593Z,51.10
2018-12-21T09:47:29.652Z,50.80
2018-12-21T09:49:56.575Z,50.80
2018-12-21T09:52:23.741Z,50.80
2018-12-21T09:54:50.865Z,50.80
2018-12-21T09:57:17.920Z,50.80
2018-12-21T09:59:44.880Z,51.10
2018-12-21T10:02:11.837Z,51.50
2018-12-21T10:04:38.797Z,51.70
2018-12-21T10:07:05.837Z,51.60
2018-12-21T10:09:32.776Z,51.60
2018-12-21T10:11:59.692Z,51.70
2018-12-21T10:14:26.670Z,52.20
2018-12-21T10:16:53.594Z,51.50
2018-12-21T10:19:20.568Z,51.40
2018-12-21T10:21:47.489Z,51.40
2018-12-21T10:24:18.492Z,51.30
2018-12-21T10:26:43.557Z,51.20
2018-12-21T10:29:10.489Z,51.30
2018-12-21T10:31:37.401Z,51.10
2018-12-21T10:34:04.385Z,51.10
2018-12-21T10:36:31.316Z,51.10
2018-12-21T10:38:58.281Z,51.10
2018-12-21T10:41:25.195Z,51.10
2018-12-21T10:43:52.118Z,51.10
2018-12-21T10:46:19.114Z,51.40
2018-12-21T10:48:46.057Z,51.50
2018-12-21T10:51:12.979Z,51.60
2018-12-21T10:53:39.958Z,51.30
2018-12-21T10:56:06.895Z,51.10
2018-12-21T10:58:33.812Z,51.10
2018-12-21T11:01:00.784Z,50.90
2018-12-21T11:03:27.705Z,50.80
2018-12-21T11:05:54.701Z,50.80
2018-12-21T11:08:21.724Z,50.80
2018-12-21T11:10:48.655Z,50.80
2018-12-21T11:13:15.949Z,50.80
2018-12-21T11:15:42.870Z,50.80
2018-12-21T11:18:09.818Z,50.90
2018-12-21T11:20:36.854Z,51.20
2018-12-21T11:23:03.963Z,51.10
2018-12-21T11:25:30.951Z,51.20
2018-12-21T11:27:57.872Z,51.50
2018-12-21T11:30:24.892Z,51.50
2018-12-21T11:32:51.901Z,51.50
2018-12-21T11:35:18.960Z,51.40
2018-12-21T11:37:45.881Z,51.40
2018-12-21T11:40:12.857Z,51.30
2018-12-21T11:42:39.792Z,51.30
2018-12-21T11:45:07.650Z,51.20
2018-12-21T11:47:34.613Z,51.70
2018-12-21T11:50:01.533Z,51.50
2018-12-21T11:52:28.465Z,51.50
2018-12-21T11:54:55.380Z,51.40
2018-12-21T11:57:22.291Z,51.30
2018-12-21T11:59:49.219Z,51.20
2018-12-21T12:02:19.691Z,51.20
2018-12-21T12:04:45.044Z,51.30
2018-12-21T12:07:11.968Z,51.30
2018-12-21T12:09:38.965Z,51.30
2018-12-21T12:12:05.903Z,51.20
2018-12-21T12:14:32.859Z,51.20
2018-12-21T12:16:59.800Z,51.20
2018-12-21T12:19:26.745Z,51.10
2018-12-21T12:21:53.678Z,51.10
2018-12-21T12:24:20.591Z,51.10
2018-12-21T12:26:47.517Z,51.10
2018-12-21T12:29:14.522Z,51.10
2018-12-21T12:31:42.984Z,51.10
2018-12-21T12:34:10.161Z,51.10
2018-12-21T12:36:37.180Z,51.10
2018-12-21T12:39:04.728Z,51.10
2018-12-21T12:41:31.699Z,51.10
2018-12-21T12:43:59.481Z,52.10
2018-12-21T12:46:26.408Z,51.60
2018-12-21T12:48:53.323Z,51.70
2018-12-21T12:51:20.245Z,51.60
2018-12-21T12:53:47.189Z,51.70
2018-12-21T12:56:14.211Z,51.80
2018-12-21T12:58:41.137Z,51.90
2018-12-21T13:01:08.157Z,52.00
2018-12-21T13:03:35.184Z,52.00
2018-12-21T13:06:02.215Z,51.80
2018-12-21T13:08:29.136Z,51.70
2018-12-21T13:10:56.061Z,51.70
2018-12-21T13:13:23.038Z,51.60
2018-12-21T13:15:49.964Z,51.60
2018-12-21T13:18:16.941Z,51.50
2018-12-21T13:20:43.864Z,51.50
2018-12-21T13:23:10.780Z,51.40
2018-12-21T13:25:37.767Z,51.40
2018-12-21T13:28:04.685Z,51.50
2018-12-21T13:30:31.644Z,51.50
2018-12-21T13:32:58.608Z,51.50
2018-12-21T13:35:25.541Z,51.60
2018-12-21T13:37:52.455Z,51.50
2018-12-21T13:40:19.376Z,51.50
2018-12-21T13:42:46.296Z,51.50
2018-12-21T13:45:13.318Z,51.40
2018-12-21T13:47:40.238Z,51.40
2018-12-21T13:50:08.210Z,51.40
2018-12-21T13:52:35.128Z,51.40
2018-12-21T13:55:02.051Z,51.30
2018-12-21T13:57:29.061Z,51.40
2018-12-21T13:59:55.980Z,51.40
2018-12-21T14:02:22.969Z,51.40
2018-12-21T14:04:49.919Z,51.40
2018-12-21T14:07:16.832Z,51.50
2018-12-21T14:09:43.758Z,51.50
2018-12-21T14:12:10.761Z,51.80
2018-12-21T14:14:37.708Z,51.60
2018-12-21T14:17:04.649Z,51.60
2018-12-21T14:19:31.589Z,51.50
2018-12-21T14:21:58.499Z,51.30
2018-12-21T14:24:25.481Z,51.10
2018-12-21T14:26:52.397Z,50.90
2018-12-21T14:29:19.359Z,50.80
2018-12-21T14:31:46.307Z,50.90
2018-12-21T14:34:13.237Z,50.80
2018-12-21T14:36:40.161Z,50.90
2018-12-21T14:39:07.164Z,50.80
2018-12-21T14:41:34.084Z,51.10
2018-12-21T14:44:01.041Z,51.40
2018-12-21T14:46:27.981Z,51.60
2018-12-21T14:48:54.965Z,51.80
2018-12-21T14:51:21.923Z,52.00
2018-12-21T14:53:48.853Z,51.90
2018-12-21T14:56:15.782Z,52.10
2018-12-21T14:58:42.738Z,51.90
2018-12-21T15:01:09.768Z,51.70
2018-12-21T15:03:36.912Z,51.80
2018-12-21T15:06:03.861Z,51.60
2018-12-21T15:08:30.813Z,51.70
2018-12-21T15:10:57.747Z,51.70
2018-12-21T15:13:24.672Z,51.60
2018-12-21T15:15:51.587Z,51.60
2018-12-21T15:18:18.609Z,51.60
2018-12-21T15:20:45.550Z,51.50
2018-12-21T15:23:12.479Z,51.50
2018-12-21T15:25:46.041Z,51.50
2018-12-21T15:28:08.353Z,51.50
2018-12-21T15:30:35.392Z,51.70
2018-12-21T15:33:02.372Z,51.70
2018-12-21T15:35:29.316Z,51.30
2018-12-21T15:37:56.313Z,51.80
2018-12-21T15:40:23.258Z,52.00
2018-12-21T15:42:50.187Z,52.10
2018-12-21T15:45:17.181Z,52.00
2018-12-21T15:47:44.096Z,51.80
2018-12-21T15:50:11.044Z,51.80
2018-12-21T15:52:37.964Z,51.70
2018-12-21T15:55:05.133Z,51.60
2018-12-21T15:57:32.069Z,51.60
2018-12-21T15:59:59.036Z,51.60
2018-12-21T16:02:25.968Z,51.60
2018-12-21T16:04:52.901Z,51.50
2018-12-21T16:07:19.869Z,51.50
2018-12-21T16:09:46.781Z,51.60
2018-12-21T16:12:13.706Z,51.60
2018-12-21T16:14:40.709Z,51.70
2018-12-21T16:17:07.621Z,51.80
2018-12-21T16:19:34.545Z,52.00
2018-12-21T16:22:01.481Z,52.10
2018-12-21T16:24:28.507Z,52.20
2018-12-21T16:26:55.425Z,52.10
2018-12-21T16:29:22.380Z,52.00
2018-12-21T16:31:49.301Z,51.90
2018-12-21T16:34:16.272Z,51.90
2018-12-21T16:36:43.211Z,51.80
2018-12-21T16:39:10.138Z,51.70
2018-12-21T16:41:37.044Z,51.60
2018-12-21T16:44:04.055Z,51.50
2018-12-21T16:46:30.975Z,51.50
2018-12-21T16:48:57.981Z,51.40
2018-12-21T16:51:24.882Z,51.40
2018-12-21T16:53:51.812Z,50.90
2018-12-21T16:56:18.780Z,51.40
2018-12-21T16:58:45.829Z,51.60
2018-12-21T17:01:12.755Z,51.70
2018-12-21T17:03:39.672Z,51.70
2018-12-21T17:06:06.672Z,51.70
2018-12-21T17:08:33.604Z,51.70
2018-12-21T17:11:00.561Z,51.80
2018-12-21T17:13:27.495Z,51.70
2018-12-21T17:15:54.421Z,51.70
2018-12-21T17:18:21.574Z,51.70
2018-12-21T17:20:48.564Z,52.10
2018-12-21T17:23:15.496Z,51.90
2018-12-21T17:25:42.447Z,51.80
2018-12-21T17:28:09.385Z,51.80
2018-12-21T17:30:36.316Z,51.80
2018-12-21T17:33:03.278Z,51.80
2018-12-21T17:35:30.229Z,52.10
2018-12-21T17:37:57.143Z,52.10
2018-12-21T17:40:24.239Z,52.10
2018-12-21T17:42:51.255Z,52.20
2018-12-21T17:45:18.173Z,52.20
2018-12-21T17:47:45.157Z,52.10
2018-12-21T17:50:12.084Z,52.00
2018-12-21T17:52:39.021Z,51.90
2018-12-21T17:55:06.295Z,51.80
2018-12-21T17:57:33.214Z,51.70
2018-12-21T18:00:00.139Z,51.70
2018-12-21T18:02:27.132Z,51.60
2018-12-21T18:04:54.048Z,51.50
2018-12-21T18:07:21.020Z,51.60
2018-12-21T18:09:47.974Z,51.50
2018-12-21T18:12:14.921Z,51.50
2018-12-21T18:14:41.833Z,51.60
2018-12-21T18:17:08.804Z,51.50
2018-12-21T18:19:35.749Z,51.80
2018-12-21T18:22:03.094Z,52.00
2018-12-21T18:24:30.052Z,52.20
2018-12-21T18:26:57.004Z,52.40
2018-12-21T18:29:23.950Z,52.40
2018-12-21T18:31:51.258Z,52.50
2018-12-21T18:34:20.105Z,52.70
2018-12-21T18:36:47.145Z,52.50
2018-12-21T18:39:14.075Z,52.40
2018-12-21T18:41:41.009Z,52.20
2018-12-21T18:44:07.944Z,52.30
2018-12-21T18:46:34.865Z,52.20
2018-12-21T18:49:01.872Z,52.40
2018-12-21T18:51:28.817Z,52.50
2018-12-21T18:53:55.746Z,52.40
2018-12-21T18:56:22.897Z,52.40
2018-12-21T18:58:49.862Z,52.20
2018-12-21T19:01:16.775Z,52.20
2018-12-21T19:03:43.743Z,52.20
2018-12-21T19:06:10.666Z,52.20
2018-12-21T19:08:37.637Z,52.20
2018-12-21T19:11:04.552Z,52.40
2018-12-21T19:13:31.528Z,52.40
2018-12-21T19:15:58.447Z,52.40
2018-12-21T19:18:25.416Z,52.30
2018-12-21T19:20:52.329Z,52.20
2018-12-21T19:23:19.340Z,52.30
2018-12-21T19:25:46.367Z,52.30
2018-12-21T19:28:13.296Z,52.80
2018-12-21T19:30:40.254Z,52.20
2018-12-21T19:33:07.316Z,52.20
2018-12-21T19:35:34.250Z,52.20
2018-12-21T19:38:01.188Z,52.20
2018-12-21T19:40:28.160Z,52.20
2018-12-21T19:42:55.088Z,52.20
2018-12-21T19:45:22.001Z,52.20
2018-12-21T19:47:48.930Z,52.10
2018-12-21T19:50:15.930Z,52.10
2018-12-21T19:52:42.865Z,52.40
2018-12-21T19:55:12.584Z,52.50
2018-12-21T19:57:39.513Z,52.80
2018-12-21T20:00:07.672Z,52.50
2018-12-21T20:02:34.672Z,52.30
2018-12-21T20:05:01.629Z,52.20
2018-12-21T20:07:28.636Z,52.10
2018-12-21T20:09:55.568Z,52.00
2018-12-21T20:12:22.527Z,51.80
2018-12-21T20:14:49.461Z,51.70
2018-12-21T20:17:16.376Z,51.70
2018-12-21T20:19:43.374Z,51.70
2018-12-21T20:22:10.298Z,51.60
2018-12-21T20:24:37.260Z,51.60
2018-12-21T20:27:13.033Z,51.50
2018-12-21T20:29:33.679Z,51.50
2018-12-21T20:32:00.721Z,51.60
2018-12-21T20:34:27.645Z,52.20
2018-12-21T20:36:54.557Z,52.10
2018-12-21T20:39:21.500Z,52.10
2018-12-21T20:41:48.445Z,52.10
2018-12-21T20:44:15.388Z,52.00
2018-12-21T20:46:42.323Z,52.00
2018-12-21T20:49:09.242Z,52.10
2018-12-21T20:51:36.162Z,51.90
2018-12-21T20:54:03.173Z,51.90
2018-12-21T20:56:30.112Z,51.90
2018-12-21T20:58:57.069Z,51.90
2018-12-21T21:01:24.017Z,51.80
2018-12-21T21:03:51.012Z,51.70
2018-12-21T21:06:17.973Z,51.70
2018-12-21T21:08:44.888Z,51.80
2018-12-21T21:11:11.817Z,51.80
2018-12-21T21:13:38.848Z,51.80
2018-12-21T21:16:05.784Z,52.10
2018-12-21T21:18:32.706Z,52.30
2018-12-21T21:20:59.675Z,52.30
2018-12-21T21:23:26.612Z,52.30
2018-12-21T21:25:53.567Z,52.40
2018-12-21T21:28:20.508Z,52.40
2018-12-21T21:30:47.434Z,52.40
2018-12-21T21:33:14.343Z,52.20
2018-12-21T21:35:41.264Z,52.10
2018-12-21T21:38:08.195Z,52.00
2018-12-21T21:40:35.640Z,52.60
2018-12-21T21:43:02.801Z,51.80
2018-12-21T21:45:29.750Z,51.80
2018-12-21T21:47:56.697Z,52.10
2018-12-21T21:50:23.617Z,51.80
2018-12-21T21:52:50.533Z,51.60
2018-12-21T21:55:17.448Z,51.60
2018-12-21T21:57:44.472Z,51.60
2018-12-21T22:00:11.431Z,51.50
2018-12-21T22:02:38.450Z,51.40
2018-12-21T22:05:05.408Z,51.60
2018-12-21T22:07:32.360Z,51.90
2018-12-21T22:09:59.299Z,52.00
2018-12-21T22:12:26.220Z,51.80
2018-12-21T22:14:53.140Z,51.70
2018-12-21T22:17:20.114Z,51.50
2018-12-21T22:19:47.028Z,51.40
2018-12-21T22:22:14.031Z,51.30
2018-12-21T22:24:40.976Z,51.10
2018-12-21T22:27:07.988Z,51.10
2018-12-21T22:29:34.945Z,51.00
2018-12-21T22:32:01.944Z,51.10
2018-12-21T22:34:28.940Z,51.10
2018-12-21T22:36:55.937Z,51.10
2018-12-21T22:39:22.968Z,51.10
2018-12-21T22:41:49.972Z,51.10
2018-12-21T22:44:16.982Z,51.10
2018-12-21T22:46:43.992Z,51.10
2018-12-21T22:49:11.003Z,51.10
2018-12-21T22:51:38.003Z,51.10
2018-12-21T22:54:05.018Z,51.10
2018-12-21T22:56:32.041Z,51.10
2018-12-21T22:58:59.058Z,51.70
2018-12-21T23:01:26.060Z,51.10
2018-12-21T23:03:53.124Z,51.00
2018-12-21T23:06:20.131Z,51.00
2018-12-21T23:08:47.157Z,50.90
2018-12-21T23:11:14.167Z,50.80
2018-12-21T23:13:41.162Z,50.80
2018-12-21T23:16:08.162Z,50.70
2018-12-21T23:18:35.169Z,50.70
2018-12-21T23:21:02.183Z,50.70
2018-12-21T23:23:29.195Z,50.60
2018-12-21T23:25:56.188Z,50.60
2018-12-21T23:28:23.191Z,50.70
2018-12-21T23:30:50.207Z,51.00
2018-12-21T23:33:17.207Z,51.70
2018-12-21T23:35:44.271Z,51.00
2018-12-21T23:38:11.280Z,50.70
2018-12-21T23:40:38.281Z,50.70
2018-12-21T23:43:05.273Z,50.60
2018-12-21T23:45:32.274Z,50.50
2018-12-21T23:47:59.281Z,50.40
2018-12-21T23:50:26.297Z,50.40
2018-12-21T23:52:53.304Z,50.30
2018-12-21T23:55:20.310Z,50.20
2018-12-21T23:57:47.328Z,50.10
